Time;durP1;ratioP1;P1;durP2;ratioP2;P2;SDS_P1;SDS_P2;PMS_P1;PMS_P2;Temp;Humidity;BMP_temperature;BMP_pressure;BME280_temperature;BME280_humidity;BME280_pressure;Samples;Min_cycle;Max_cycle;Signal;HPM_P1;HPM_P2
2022/04/28 00:01:53;;;;;;;19.58;9.43;;;;;;;;;;5033254;28;20087;-60
2022/04/28 00:04:19;;;;;;;17.85;9.90;;;;;;;;;;5033238;28;20117;-60
2022/04/28 00:06:45;;;;;;;16.25;9.02;;;;;;;;;;5033133;28;20034;-59
2022/04/28 00:09:11;;;;;;;29.90;16.17;;;;;;;;;;5032937;28;20167;-60
2022/04/28 00:11:36;;;;;;;20.02;9.45;;;;;;;;;;5033179;28;20442;-60
2022/04/28 00:14:02;;;;;;;13.82;9.00;;;;;;;;;;5033178;28;20104;-60
2022/04/28 00:16:28;;;;;;;16.42;9.13;;;;;;;;;;5032991;28;20021;-60
2022/04/28 00:18:54;;;;;;;26.67;12.50;;;;;;;;;;5033032;28;20386;-59
2022/04/28 00:21:20;;;;;;;31.75;14.93;;;;;;;;;;5032996;28;20425;-60
2022/04/28 00:23:46;;;;;;;40.53;19.23;;;;;;;;;;5032546;28;20073;-60
2022/04/28 00:26:12;;;;;;;33.33;15.38;;;;;;;;;;5032809;28;20071;-60
2022/04/28 00:28:37;;;;;;;31.73;17.90;;;;;;;;;;5032814;28;20467;-61
2022/04/28 00:31:03;;;;;;;25.35;13.45;;;;;;;;;;5032703;28;20422;-60
2022/04/28 00:33:28;;;;;;;22.52;11.38;;;;;;;;;;5032485;28;20092;-60
2022/04/28 00:35:54;;;;;;;15.80;9.05;;;;;;;;;;5032873;28;20032;-60
2022/04/28 00:38:20;;;;;;;17.73;8.95;;;;;;;;;;5032372;28;20029;-60
2022/04/28 00:40:46;;;;;;;15.88;7.90;;;;;;;;;;5032652;28;20029;-61
2022/04/28 00:43:20;;;;;;;15.52;8.77;;;;;;;;;;5032586;28;20025;-61
2022/04/28 00:45:50;;;;;;;14.00;7.78;;;;;;;;;;5032496;28;20040;-59
2022/04/28 00:51:04;;;;;;;12.57;8.07;;;;;;;;;;5032526;28;20040;-59
2022/04/28 00:53:32;;;;;;;14.90;8.23;;;;;;;;;;5032199;28;20367;-60
2022/04/28 00:55:58;;;;;;;14.88;8.70;;;;;;;;;;5032589;28;20036;-61
2022/04/28 00:58:25;;;;;;;14.77;8.40;;;;;;;;;;5032341;28;20018;-61
2022/04/28 01:00:53;;;;;;;14.27;8.48;;;;;;;;;;5032315;28;20022;-60
2022/04/28 01:03:19;;;;;;;14.40;8.38;;;;;;;;;;5032291;28;20033;-61
2022/04/28 01:05:44;;;;;;;14.60;8.57;;;;;;;;;;5032453;28;20368;-62
2022/04/28 01:08:10;;;;;;;16.75;8.35;;;;;;;;;;5032045;28;20096;-62
2022/04/28 01:10:36;;;;;;;15.23;7.63;;;;;;;;;;5032333;28;20029;-61
2022/04/28 01:13:03;;;;;;;12.50;7.63;;;;;;;;;;5032338;28;20064;-60
2022/04/28 01:15:28;;;;;;;20.83;8.55;;;;;;;;;;5032234;28;20034;-62
2022/04/28 01:17:54;;;;;;;14.57;7.35;;;;;;;;;;5032265;28;20032;-61
2022/04/28 01:20:19;;;;;;;13.77;8.02;;;;;;;;;;5032210;28;20463;-60
2022/04/28 01:22:45;;;;;;;13.55;7.75;;;;;;;;;;5031568;28;20042;-60
2022/04/28 01:25:11;;;;;;;12.07;8.00;;;;;;;;;;5032086;28;20048;-61
2022/04/28 01:27:38;;;;;;;14.45;7.82;;;;;;;;;;5032003;28;20030;-61
2022/04/28 01:30:11;;;;;;;14.10;8.25;;;;;;;;;;5032088;28;20402;-60
2022/04/28 01:32:37;;;;;;;15.02;8.68;;;;;;;;;;5032155;28;20148;-61
2022/04/28 01:35:03;;;;;;;16.67;8.73;;;;;;;;;;5032042;28;20112;-60
2022/04/28 01:37:28;;;;;;;14.73;8.57;;;;;;;;;;5031953;28;20091;-60
2022/04/28 01:39:56;;;;;;;15.43;8.38;;;;;;;;;;5032245;28;20075;-59
2022/04/28 01:42:23;;;;;;;16.13;8.60;;;;;;;;;;5032127;28;20037;-60
2022/04/28 01:44:49;;;;;;;16.80;8.75;;;;;;;;;;5032024;28;20033;-60
2022/04/28 01:47:16;;;;;;;15.57;8.95;;;;;;;;;;5035917;28;20032;-60
2022/04/28 01:49:41;;;;;;;20.00;9.55;;;;;;;;;;5036014;28;20036;-61
2022/04/28 01:55:00;;;;;;;19.25;9.45;;;;;;;;;;5035822;28;20041;-60
2022/04/28 01:57:29;;;;;;;17.48;9.27;;;;;;;;;;5035704;28;20026;-60
2022/04/28 01:59:59;;;;;;;16.07;8.97;;;;;;;;;;5035764;28;20032;-60
2022/04/28 02:02:24;;;;;;;19.30;8.30;;;;;;;;;;5035701;28;20766;-60
2022/04/28 02:04:50;;;;;;;15.85;9.07;;;;;;;;;;5035363;28;20037;-61
2022/04/28 02:07:16;;;;;;;18.65;10.00;;;;;;;;;;5035701;28;20426;-60
2022/04/28 02:09:43;;;;;;;18.60;9.88;;;;;;;;;;5035501;28;20040;-60
2022/04/28 02:12:10;;;;;;;18.58;9.65;;;;;;;;;;5035542;28;20025;-62
2022/04/28 02:14:36;;;;;;;17.60;9.52;;;;;;;;;;5035632;28;20410;-60
2022/04/28 02:17:04;;;;;;;19.85;9.90;;;;;;;;;;5035497;28;20549;-60
2022/04/28 02:19:31;;;;;;;18.17;9.80;;;;;;;;;;5035203;28;20100;-60
2022/04/28 02:21:56;;;;;;;21.27;10.98;;;;;;;;;;5035257;28;20513;-60
2022/04/28 02:24:22;;;;;;;20.30;10.55;;;;;;;;;;5035036;28;20069;-60
2022/04/28 02:26:48;;;;;;;19.90;10.23;;;;;;;;;;5035204;28;20064;-59
2022/04/28 02:29:13;;;;;;;18.40;10.32;;;;;;;;;;5035264;28;20108;-60
2022/04/28 02:31:39;;;;;;;18.48;9.77;;;;;;;;;;5035193;28;20029;-60
2022/04/28 02:34:05;;;;;;;19.23;9.88;;;;;;;;;;5035116;28;20078;-61
2022/04/28 02:36:30;;;;;;;20.10;10.43;;;;;;;;;;5035199;28;20029;-59
2022/04/28 02:38:56;;;;;;;19.17;10.10;;;;;;;;;;5035131;28;20316;-60
2022/04/28 02:41:21;;;;;;;20.08;10.48;;;;;;;;;;5034970;28;20018;-60
2022/04/28 02:43:52;;;;;;;21.83;10.55;;;;;;;;;;5034715;28;20041;-60
2022/04/28 02:46:18;;;;;;;18.70;9.75;;;;;;;;;;5034902;28;20545;-60
2022/04/28 02:48:44;;;;;;;23.35;12.00;;;;;;;;;;5034631;28;20363;-60
2022/04/28 02:51:10;;;;;;;17.73;10.35;;;;;;;;;;5034767;28;20494;-60
2022/04/28 02:53:36;;;;;;;16.63;9.70;;;;;;;;;;5034676;28;20017;-60
2022/04/28 02:56:03;;;;;;;18.85;9.30;;;;;;;;;;5034635;28;20497;-60
2022/04/28 02:58:28;;;;;;;17.27;9.15;;;;;;;;;;5034614;28;20022;-62
2022/04/28 03:00:54;;;;;;;19.33;9.63;;;;;;;;;;5034634;28;20079;-60
2022/04/28 03:03:20;;;;;;;17.35;9.73;;;;;;;;;;5034375;28;20025;-62
2022/04/28 03:11:17;;;;;;;22.73;9.40;;;;;;;;;;5034505;28;20083;-61
2022/04/28 03:13:43;;;;;;;22.88;9.65;;;;;;;;;;5034303;28;20101;-61
2022/04/28 03:16:08;;;;;;;19.75;9.27;;;;;;;;;;5034403;28;20036;-61
2022/04/28 03:18:34;;;;;;;14.73;8.65;;;;;;;;;;5034100;28;20017;-63
2022/04/28 03:21:00;;;;;;;16.30;9.15;;;;;;;;;;5034212;28;20032;-61
2022/04/28 03:23:25;;;;;;;18.10;9.45;;;;;;;;;;5033932;28;20038;-61
2022/04/28 03:25:51;;;;;;;19.35;9.88;;;;;;;;;;5034221;28;20048;-60
2022/04/28 03:28:20;;;;;;;16.58;9.05;;;;;;;;;;5034007;28;20068;-63
2022/04/28 03:30:46;;;;;;;18.65;9.65;;;;;;;;;;5033990;28;20044;-61
2022/04/28 03:33:12;;;;;;;15.80;8.85;;;;;;;;;;5033728;28;20117;-62
2022/04/28 03:35:39;;;;;;;18.77;8.88;;;;;;;;;;5033982;28;20426;-61
2022/04/28 03:38:04;;;;;;;15.80;9.18;;;;;;;;;;5033887;28;20104;-61
2022/04/28 03:40:30;;;;;;;17.55;8.80;;;;;;;;;;5033797;28;20493;-62
2022/04/28 03:42:57;;;;;;;15.25;8.70;;;;;;;;;;5033763;28;20021;-61
2022/04/28 03:45:26;;;;;;;15.20;8.77;;;;;;;;;;5033677;28;20385;-62
2022/04/28 03:47:52;;;;;;;15.43;8.77;;;;;;;;;;5033522;28;20052;-60
2022/04/28 03:50:17;;;;;;;15.70;8.45;;;;;;;;;;5033648;28;20022;-60
2022/04/28 03:52:43;;;;;;;19.20;8.02;;;;;;;;;;5033756;28;20095;-60
2022/04/28 03:55:10;;;;;;;19.92;8.02;;;;;;;;;;5033570;28;20508;-61
2022/04/28 03:57:36;;;;;;;15.02;7.97;;;;;;;;;;5033379;28;20478;-61
2022/04/28 04:00:06;;;;;;;13.80;7.68;;;;;;;;;;5033501;28;20036;-61
2022/04/28 04:02:31;;;;;;;15.70;8.30;;;;;;;;;;5031382;28;20477;-60
2022/04/28 04:04:58;;;;;;;16.85;9.13;;;;;;;;;;5033353;28;20042;-61
2022/04/28 04:07:28;;;;;;;17.35;10.00;;;;;;;;;;5033411;28;20029;-60
2022/04/28 04:09:54;;;;;;;18.55;10.07;;;;;;;;;;5033173;28;20029;-60
2022/04/28 04:12:20;;;;;;;18.70;9.98;;;;;;;;;;5033209;28;20025;-60
2022/04/28 04:14:45;;;;;;;17.48;9.30;;;;;;;;;;5033269;28;20436;-61
2022/04/28 04:17:11;;;;;;;18.52;9.18;;;;;;;;;;5032918;28;20471;-60
2022/04/28 04:19:36;;;;;;;21.45;9.13;;;;;;;;;;5033106;28;20112;-61
2022/04/28 04:22:02;;;;;;;20.15;8.52;;;;;;;;;;5032725;28;20487;-61
2022/04/28 04:24:28;;;;;;;31.17;8.23;;;;;;;;;;5032767;28;20077;-60
2022/04/28 04:26:53;;;;;;;22.30;8.93;;;;;;;;;;5032843;28;20021;-60
2022/04/28 04:29:19;;;;;;;19.50;8.55;;;;;;;;;;5032961;28;20022;-61
2022/04/28 04:32:30;;;;;;;24.77;9.35;;;;;;;;;;5032762;28;20064;-60
2022/04/28 04:34:30;;;;;;;18.08;7.38;;;;;;;;;;5025486;28;20103;-60
2022/04/28 04:36:56;;;;;;;16.98;8.23;;;;;;;;;;5032803;28;20408;-62
2022/04/28 04:39:21;;;;;;;24.10;7.68;;;;;;;;;;5032866;28;20021;-60
2022/04/28 04:41:47;;;;;;;20.85;8.35;;;;;;;;;;5032756;28;20025;-60
2022/04/28 04:44:15;;;;;;;22.38;8.07;;;;;;;;;;5032414;28;20378;-62
2022/04/28 04:46:42;;;;;;;23.40;7.93;;;;;;;;;;5032773;28;20029;-62
2022/04/28 04:49:08;;;;;;;22.50;8.07;;;;;;;;;;5032659;28;20072;-61
2022/04/28 04:51:34;;;;;;;17.67;7.78;;;;;;;;;;5032604;28;20071;-61
2022/04/28 04:54:00;;;;;;;19.85;8.15;;;;;;;;;;5032646;28;20033;-60
2022/04/28 04:56:25;;;;;;;16.77;7.68;;;;;;;;;;5032533;28;20029;-60
2022/04/28 04:58:51;;;;;;;18.52;8.50;;;;;;;;;;5032317;28;20021;-61
2022/04/28 05:01:16;;;;;;;24.38;10.50;;;;;;;;;;5032602;28;20021;-60
2022/04/28 05:03:42;;;;;;;21.90;8.55;;;;;;;;;;5032432;28;20065;-60
2022/04/28 05:06:08;;;;;;;18.55;8.73;;;;;;;;;;5032387;28;20428;-61
2022/04/28 05:08:34;;;;;;;18.73;8.32;;;;;;;;;;5032511;28;20152;-61
2022/04/28 05:10:59;;;;;;;19.00;8.35;;;;;;;;;;5032491;28;20037;-60
2022/04/28 05:13:25;;;;;;;24.48;8.65;;;;;;;;;;5032296;28;20029;-61
2022/04/28 05:15:51;;;;;;;21.83;9.10;;;;;;;;;;5032390;28;20053;-60
2022/04/28 05:18:16;;;;;;;19.55;8.00;;;;;;;;;;5032365;28;20060;-61
2022/04/28 05:20:42;;;;;;;26.88;8.63;;;;;;;;;;5033902;28;20079;-61
2022/04/28 05:23:08;;;;;;;20.35;8.63;;;;;;;;;;5036188;28;20033;-61
2022/04/28 05:25:33;;;;;;;18.17;7.20;;;;;;;;;;5036419;28;20116;-61
2022/04/28 05:27:59;;;;;;;15.20;7.03;;;;;;;;;;5036085;28;20025;-61
2022/04/28 05:30:25;;;;;;;15.25;7.75;;;;;;;;;;5036230;28;20033;-61
2022/04/28 05:32:50;;;;;;;15.70;7.82;;;;;;;;;;5036255;28;20482;-60
2022/04/28 05:35:16;;;;;;;15.90;8.02;;;;;;;;;;5036189;28;20489;-60
2022/04/28 05:37:42;;;;;;;12.68;6.90;;;;;;;;;;5036162;28;20088;-61
2022/04/28 05:40:08;;;;;;;13.07;6.53;;;;;;;;;;5036248;28;20030;-61
2022/04/28 05:48:04;;;;;;;18.00;7.32;;;;;;;;;;5036317;28;20032;-61
2022/04/28 05:50:30;;;;;;;18.45;7.18;;;;;;;;;;5035930;28;20017;-61
2022/04/28 05:52:55;;;;;;;16.00;8.48;;;;;;;;;;5035864;28;20040;-60
2022/04/28 05:55:21;;;;;;;12.68;6.18;;;;;;;;;;5035467;28;20022;-62
2022/04/28 05:57:47;;;;;;;22.45;7.70;;;;;;;;;;5035611;28;20033;-61
2022/04/28 06:00:13;;;;;;;23.80;8.73;;;;;;;;;;5035703;28;20027;-61
2022/04/28 06:02:39;;;;;;;17.77;8.68;;;;;;;;;;5035735;28;20044;-61
2022/04/28 06:05:05;;;;;;;14.35;7.72;;;;;;;;;;5035573;28;20112;-60
2022/04/28 06:07:30;;;;;;;20.45;7.38;;;;;;;;;;5035489;28;20033;-61
2022/04/28 06:09:56;;;;;;;14.40;6.63;;;;;;;;;;5035547;28;20030;-61
2022/04/28 06:12:24;;;;;;;22.40;6.65;;;;;;;;;;5035080;28;20030;-61
2022/04/28 06:14:49;;;;;;;15.20;6.47;;;;;;;;;;5035370;28;20034;-61
2022/04/28 06:17:15;;;;;;;15.30;7.47;;;;;;;;;;5035205;28;20101;-63
2022/04/28 06:19:41;;;;;;;13.02;5.53;;;;;;;;;;5035512;28;20022;-60
2022/04/28 06:22:06;;;;;;;14.85;7.43;;;;;;;;;;5035498;28;20437;-60
2022/04/28 06:24:32;;;;;;;18.48;7.30;;;;;;;;;;5034935;28;20033;-60
2022/04/28 06:26:57;;;;;;;12.05;5.80;;;;;;;;;;5034904;28;20034;-62
2022/04/28 06:29:23;;;;;;;11.27;6.50;;;;;;;;;;5035162;28;20017;-60
2022/04/28 06:31:48;;;;;;;11.93;6.50;;;;;;;;;;5017004;28;20386;-61
2022/04/28 06:34:14;;;;;;;11.52;6.07;;;;;;;;;;5035122;28;20033;-62
2022/04/28 06:36:40;;;;;;;10.93;5.45;;;;;;;;;;5034944;28;20024;-60
2022/04/28 06:39:05;;;;;;;10.27;6.18;;;;;;;;;;5035059;28;20448;-61
2022/04/28 06:41:31;;;;;;;10.57;6.07;;;;;;;;;;5034898;28;20025;-61
2022/04/28 06:43:56;;;;;;;14.05;5.68;;;;;;;;;;5035091;28;20463;-60
2022/04/28 06:46:22;;;;;;;16.05;6.80;;;;;;;;;;5034917;28;20528;-60
2022/04/28 06:48:48;;;;;;;12.77;5.97;;;;;;;;;;5034751;28;20088;-62
2022/04/28 06:51:14;;;;;;;11.65;6.35;;;;;;;;;;5034805;28;20029;-60
2022/04/28 06:53:40;;;;;;;11.95;6.47;;;;;;;;;;5034835;28;20044;-60
2022/04/28 06:56:06;;;;;;;12.68;6.05;;;;;;;;;;5034596;28;20025;-60
2022/04/28 06:58:32;;;;;;;12.77;6.13;;;;;;;;;;5034830;28;20103;-62
2022/04/28 07:00:58;;;;;;;11.55;6.50;;;;;;;;;;5034515;28;20463;-61
2022/04/28 07:03:23;;;;;;;9.80;6.10;;;;;;;;;;5024943;28;20471;-61
2022/04/28 07:05:49;;;;;;;9.95;6.07;;;;;;;;;;5024985;28;20114;-61
2022/04/28 07:08:15;;;;;;;9.95;5.80;;;;;;;;;;5024057;28;20042;-61
2022/04/28 07:10:41;;;;;;;11.63;6.05;;;;;;;;;;5023084;28;20532;-60
2022/04/28 07:13:07;;;;;;;9.75;5.55;;;;;;;;;;5024156;28;20565;-61
2022/04/28 07:15:38;;;;;;;8.60;5.57;;;;;;;;;;5021153;28;20038;-61
2022/04/28 07:18:03;;;;;;;;;;;;;;;;;;5031341;28;20104;-61
2022/04/28 07:20:31;;;;;;;12.02;6.70;;;;;;;;;;5027033;28;19920;-61
2022/04/28 07:22:59;;;;;;;14.18;6.88;;;;;;;;;;5024492;28;20188;-61
2022/04/28 07:25:28;;;;;;;9.88;6.35;;;;;;;;;;5024239;28;20108;-61
2022/04/28 07:27:55;;;;;;;13.73;7.28;;;;;;;;;;5023950;28;20018;-61
2022/04/28 07:30:21;;;;;;;12.13;6.55;;;;;;;;;;5022452;28;20029;-61
2022/04/28 07:32:49;;;;;;;14.32;6.97;;;;;;;;;;5024502;28;20042;-61
2022/04/28 07:35:15;;;;;;;13.02;7.18;;;;;;;;;;5023143;28;20079;-62
2022/04/28 07:37:40;;;;;;;12.77;6.88;;;;;;;;;;5024235;28;20152;-61
2022/04/28 07:40:07;;;;;;;12.27;7.32;;;;;;;;;;5022419;28;20081;-60
2022/04/28 07:42:33;;;;;;;9.40;6.57;;;;;;;;;;5022454;28;20029;-60
2022/04/28 07:44:59;;;;;;;11.85;6.53;;;;;;;;;;5023867;28;20134;-61
2022/04/28 07:47:28;;;;;;;13.55;6.30;;;;;;;;;;5021656;28;20053;-61
2022/04/28 07:49:54;;;;;;;17.30;6.93;;;;;;;;;;5023261;28;20033;-62
2022/04/28 07:52:19;;;;;;;12.35;7.63;;;;;;;;;;5023545;28;20030;-61
2022/04/28 07:54:45;;;;;;;11.20;6.53;;;;;;;;;;5021840;28;20029;-61
2022/04/28 07:57:10;;;;;;;11.85;6.55;;;;;;;;;;5023789;28;20025;-61
2022/04/28 07:59:37;;;;;;;12.27;6.78;;;;;;;;;;5022969;28;20063;-61
2022/04/28 08:02:03;;;;;;;16.35;6.55;;;;;;;;;;5021956;28;20025;-60
2022/04/28 08:04:30;;;;;;;10.38;6.60;;;;;;;;;;5023652;28;20032;-61
2022/04/28 08:06:56;;;;;;;22.75;8.00;;;;;;;;;;5022449;28;20236;-61
2022/04/28 08:09:21;;;;;;;13.80;7.57;;;;;;;;;;5023212;28;20049;-61
2022/04/28 08:11:47;;;;;;;11.82;6.80;;;;;;;;;;5022237;28;20033;-62
2022/04/28 08:14:12;;;;;;;10.10;7.55;;;;;;;;;;5024727;28;20038;-62
2022/04/28 08:16:38;;;;;;;15.25;7.38;;;;;;;;;;5026771;28;20072;-61
2022/04/28 08:19:05;;;;;;;13.50;7.03;;;;;;;;;;5021593;28;20030;-61
2022/04/28 08:21:30;;;;;;;10.88;7.68;;;;;;;;;;5022522;28;20021;-61
2022/04/28 08:29:27;;;;;;;11.60;7.30;;;;;;;;;;4922853;29;20486;-60
2022/04/28 08:31:53;;;;;;;10.80;7.05;;;;;;;;;;4923810;29;20137;-60
2022/04/28 08:34:19;;;;;;;12.77;6.93;;;;;;;;;;4924056;29;20110;-60
2022/04/28 08:36:47;;;;;;;11.68;7.20;;;;;;;;;;4926147;29;20036;-60
2022/04/28 08:39:13;;;;;;;11.02;6.90;;;;;;;;;;4922651;29;20030;-60
2022/04/28 08:41:47;;;;;;;8.32;6.28;;;;;;;;;;4920609;29;20040;-60
2022/04/28 08:44:23;;;;;;;11.70;7.55;;;;;;;;;;4897398;29;20040;-62
2022/04/28 08:46:51;;;;;;;13.32;6.75;;;;;;;;;;4911608;29;20046;-61
2022/04/28 08:49:32;;;;;;;14.20;7.35;;;;;;;;;;4913371;29;20619;-62
2022/04/28 08:51:59;;;;;;;11.43;6.55;;;;;;;;;;4913338;29;20430;-61
2022/04/28 08:54:27;;;;;;;10.88;6.70;;;;;;;;;;4913284;29;20051;-60
2022/04/28 08:56:53;;;;;;;15.77;6.57;;;;;;;;;;4910577;29;20068;-60
2022/04/28 08:59:20;;;;;;;14.13;6.63;;;;;;;;;;4913321;29;20059;-60
2022/04/28 09:01:45;;;;;;;13.65;7.00;;;;;;;;;;4913428;29;20032;-61
2022/04/28 09:04:11;;;;;;;11.23;6.03;;;;;;;;;;4950473;28;20047;-61
2022/04/28 09:06:42;;;;;;;10.65;6.45;;;;;;;;;;4991410;28;20063;-62
2022/04/28 09:09:13;;;;;;;10.85;6.88;;;;;;;;;;5012154;28;20030;-60
2022/04/28 09:11:41;;;;;;;11.73;6.80;;;;;;;;;;5012481;28;20030;-60
2022/04/28 09:14:09;;;;;;;16.45;6.35;;;;;;;;;;4994873;28;20036;-60
2022/04/28 09:16:46;;;;;;;10.75;6.57;;;;;;;;;;5012296;28;20033;-62
2022/04/28 09:19:22;;;;;;;14.63;6.97;;;;;;;;;;5020165;28;20033;-61
2022/04/28 09:21:50;;;;;;;12.00;5.63;;;;;;;;;;5017212;28;20073;-61
2022/04/28 09:24:16;;;;;;;8.90;5.70;;;;;;;;;;5022725;28;20468;-61
2022/04/28 09:26:42;;;;;;;9.57;5.90;;;;;;;;;;5020016;28;20025;-61
2022/04/28 09:29:13;;;;;;;11.63;5.95;;;;;;;;;;5012310;28;20499;-62
2022/04/28 09:31:40;;;;;;;8.15;5.50;;;;;;;;;;5022480;28;20056;-62
2022/04/28 09:34:11;;;;;;;16.08;5.75;;;;;;;;;;5019237;28;20022;-61
2022/04/28 09:36:37;;;;;;;10.35;5.55;;;;;;;;;;5020026;28;20483;-60
2022/04/28 09:39:07;;;;;;;13.23;5.55;;;;;;;;;;5022686;28;20049;-60
2022/04/28 09:44:21;;;;;;;11.43;4.93;;;;;;;;;;5022410;28;19960;-62
2022/04/28 09:46:48;;;;;;;15.87;6.23;;;;;;;;;;5021029;28;20018;-61
2022/04/28 09:49:18;;;;;;;12.15;6.05;;;;;;;;;;5020506;28;20420;-61
2022/04/28 09:51:44;;;;;;;;;;;;;;;;;;5029212;28;20515;-61
2022/04/28 09:54:12;;;;;;;9.90;6.55;;;;;;;;;;5031969;28;19944;-61
2022/04/28 09:56:39;;;;;;;9.43;5.78;;;;;;;;;;5031884;28;20032;-61
2022/04/28 09:59:08;;;;;;;11.60;6.07;;;;;;;;;;5025786;28;20022;-61
2022/04/28 10:01:35;;;;;;;9.80;5.93;;;;;;;;;;5026170;28;20060;-62
2022/04/28 10:04:01;;;;;;;12.05;6.03;;;;;;;;;;5028446;28;20064;-62
2022/04/28 10:06:29;;;;;;;8.57;5.57;;;;;;;;;;5032539;28;20109;-61
2022/04/28 10:08:56;;;;;;;19.58;6.90;;;;;;;;;;5035263;28;20030;-61
2022/04/28 10:11:23;;;;;;;15.48;6.40;;;;;;;;;;5035460;28;20391;-61
2022/04/28 10:13:51;;;;;;;12.70;6.75;;;;;;;;;;5035334;28;20082;-61
2022/04/28 10:16:19;;;;;;;10.90;6.25;;;;;;;;;;5035438;28;20495;-62
2022/04/28 10:19:02;;;;;;;12.73;6.68;;;;;;;;;;5035119;28;20080;-61
2022/04/28 10:21:40;;;;;;;15.40;7.85;;;;;;;;;;5035035;28;20071;-61
2022/04/28 10:32:53;;;;;;;11.68;6.45;;;;;;;;;;5054028;28;20342;-63
2022/04/28 10:35:31;;;;;;;14.57;6.30;;;;;;;;;;5015085;28;20490;-62
2022/04/28 10:38:14;;;;;;;14.70;7.20;;;;;;;;;;5015198;28;20022;-63
2022/04/28 10:40:57;;;;;;;8.48;5.80;;;;;;;;;;5015244;28;20036;-63
2022/04/28 10:43:25;;;;;;;19.88;6.78;;;;;;;;;;5014931;28;20041;-63
2022/04/28 10:45:53;;;;;;;11.77;6.38;;;;;;;;;;5014804;28;20049;-62
2022/04/28 10:48:32;;;;;;;9.38;5.65;;;;;;;;;;5014581;28;20450;-61
2022/04/28 10:51:01;;;;;;;13.10;5.82;;;;;;;;;;5014725;28;20125;-62
2022/04/28 10:53:27;;;;;;;11.55;5.85;;;;;;;;;;5014641;28;20149;-62
2022/04/28 10:55:52;;;;;;;17.75;5.43;;;;;;;;;;5014612;28;20085;-62
2022/04/28 10:58:24;;;;;;;11.95;4.65;;;;;;;;;;5014837;28;20034;-62
2022/04/28 11:00:56;;;;;;;14.27;5.88;;;;;;;;;;5023407;28;20455;-61
2022/04/28 11:03:47;;;;;;;9.00;5.50;;;;;;;;;;5025742;28;20036;-62
2022/04/28 11:06:21;;;;;;;10.75;5.28;;;;;;;;;;5028441;28;20029;-61
2022/04/28 11:08:55;;;;;;;8.52;4.85;;;;;;;;;;5023248;28;20022;-62
2022/04/28 11:11:21;;;;;;;7.70;4.97;;;;;;;;;;5023758;28;20030;-63
2022/04/28 11:13:56;;;;;;;10.25;5.65;;;;;;;;;;5023185;28;20021;-62
2022/04/28 11:16:22;;;;;;;18.55;4.95;;;;;;;;;;5023648;28;20053;-61
2022/04/28 11:18:47;;;;;;;9.45;4.20;;;;;;;;;;5023003;28;20466;-62
2022/04/28 11:21:14;;;;;;;6.38;3.65;;;;;;;;;;5024675;28;20448;-61
2022/04/28 11:23:45;;;;;;;12.65;5.05;;;;;;;;;;5024139;28;20049;-61
2022/04/28 11:26:11;;;;;;;12.30;4.90;;;;;;;;;;5024553;28;20017;-62
2022/04/28 11:28:38;;;;;;;11.25;5.13;;;;;;;;;;5025888;28;20085;-61
2022/04/28 11:31:14;;;;;;;13.63;5.40;;;;;;;;;;5033565;28;20034;-61
2022/04/28 11:33:42;;;;;;;10.05;5.63;;;;;;;;;;5033895;28;20036;-61
2022/04/28 11:36:34;;;;;;;10.05;4.95;;;;;;;;;;5033881;28;20104;-60
2022/04/28 11:39:02;;;;;;;10.93;4.70;;;;;;;;;;5031066;28;20379;-60
2022/04/28 11:41:33;;;;;;;11.35;5.15;;;;;;;;;;5015837;28;20017;-61
2022/04/28 11:44:07;;;;;;;11.52;4.70;;;;;;;;;;5033673;28;20056;-60
2022/04/28 11:46:50;;;;;;;8.88;4.50;;;;;;;;;;5033301;28;20475;-61
2022/04/28 11:49:17;;;;;;;7.63;3.95;;;;;;;;;;5033050;28;20433;-60
2022/04/28 11:51:43;;;;;;;9.68;4.80;;;;;;;;;;5033319;28;20033;-60
2022/04/28 11:54:23;;;;;;;10.88;5.03;;;;;;;;;;5033521;28;20025;-60
2022/04/28 11:56:49;;;;;;;10.73;5.07;;;;;;;;;;5033304;28;20028;-60
2022/04/28 11:59:15;;;;;;;8.70;4.32;;;;;;;;;;5032985;28;20021;-61
2022/04/28 12:01:42;;;;;;;12.32;4.93;;;;;;;;;;5032924;28;20386;-60
2022/04/28 12:04:08;;;;;;;6.10;3.13;;;;;;;;;;5033064;28;20017;-60
2022/04/28 12:06:34;;;;;;;6.35;2.90;;;;;;;;;;5032795;28;20035;-59
2022/04/28 12:14:31;;;;;;;6.80;3.10;;;;;;;;;;4972153;28;20097;-60
2022/04/28 12:19:57;;;;;;;8.20;3.35;;;;;;;;;;4971760;28;20034;-62
2022/04/28 12:22:35;;;;;;;9.18;3.50;;;;;;;;;;4970271;28;20097;-60
2022/04/28 12:25:15;;;;;;;10.43;3.28;;;;;;;;;;4952294;29;20139;-60
2022/04/28 12:27:44;;;;;;;12.18;4.10;;;;;;;;;;4952394;29;20030;-61
2022/04/28 12:30:15;;;;;;;11.02;3.78;;;;;;;;;;4951454;28;20496;-60
2022/04/28 12:32:55;;;;;;;6.07;3.55;;;;;;;;;;4952421;29;20091;-60
2022/04/28 12:35:27;;;;;;;7.97;3.60;;;;;;;;;;4952242;29;20167;-60
2022/04/28 12:37:58;;;;;;;10.48;3.72;;;;;;;;;;4952163;29;20409;-59
2022/04/28 12:40:25;;;;;;;7.75;3.53;;;;;;;;;;4952197;29;20031;-59
2022/04/28 12:42:51;;;;;;;7.35;3.03;;;;;;;;;;4951970;29;20035;-59
2022/04/28 12:45:51;;;;;;;11.20;3.75;;;;;;;;;;4952184;29;20492;-59
2022/04/28 12:48:33;;;;;;;7.43;3.55;;;;;;;;;;4971441;28;20410;-62
2022/04/28 12:51:18;;;;;;;4.57;2.55;;;;;;;;;;5032280;28;20479;-59
2022/04/28 12:53:52;;;;;;;6.63;2.83;;;;;;;;;;5031794;28;20120;-59
2022/04/28 12:56:32;;;;;;;3.75;2.50;;;;;;;;;;5032359;28;20038;-59
2022/04/28 12:59:02;;;;;;;8.80;2.63;;;;;;;;;;5031868;28;20018;-60
2022/04/28 13:01:28;;;;;;;;;;;;;;;;;;5032380;28;20108;-59
2022/04/28 13:03:59;;;;;;;13.98;3.22;;;;;;;;;;5031705;28;19917;-59
2022/04/28 13:06:30;;;;;;;4.85;2.60;;;;;;;;;;5031664;28;20029;-60
2022/04/28 13:08:57;;;;;;;3.85;2.30;;;;;;;;;;5008846;28;20083;-60
2022/04/28 13:11:29;;;;;;;12.60;2.80;;;;;;;;;;5000906;28;20509;-59
2022/04/28 13:13:55;;;;;;;8.32;2.50;;;;;;;;;;5014454;28;20033;-60
2022/04/28 13:16:22;;;;;;;6.75;2.42;;;;;;;;;;5031810;28;20035;-61
2022/04/28 13:18:48;;;;;;;9.43;3.17;;;;;;;;;;5031999;28;20382;-60
2022/04/28 13:21:15;;;;;;;10.95;3.35;;;;;;;;;;5031839;28;20036;-60
2022/04/28 13:23:42;;;;;;;11.18;3.95;;;;;;;;;;5031714;28;20127;-60
2022/04/28 13:26:08;;;;;;;6.68;3.00;;;;;;;;;;5031671;28;20022;-61
2022/04/28 13:28:34;;;;;;;7.38;3.55;;;;;;;;;;5032042;28;20116;-60
2022/04/28 13:31:00;;;;;;;5.93;2.92;;;;;;;;;;5031855;28;20385;-61
2022/04/28 13:33:25;;;;;;;6.40;2.72;;;;;;;;;;5031639;28;20105;-61
2022/04/28 13:35:52;;;;;;;5.38;2.70;;;;;;;;;;5031837;28;20029;-60
2022/04/28 13:38:17;;;;;;;11.25;3.20;;;;;;;;;;5031792;28;20387;-62
2022/04/28 13:40:43;;;;;;;7.15;2.70;;;;;;;;;;5031669;28;20037;-59
2022/04/28 13:43:09;;;;;;;4.60;2.17;;;;;;;;;;5035479;28;20423;-61
2022/04/28 13:45:34;;;;;;;7.78;2.60;;;;;;;;;;5035427;28;20041;-61
2022/04/28 13:48:00;;;;;;;13.80;2.85;;;;;;;;;;5035260;28;20018;-60
2022/04/28 13:50:25;;;;;;;10.13;2.72;;;;;;;;;;5034811;28;20387;-61
2022/04/28 13:52:51;;;;;;;4.78;2.30;;;;;;;;;;5036217;28;20127;-61
2022/04/28 13:55:18;;;;;;;6.07;2.42;;;;;;;;;;5046224;28;20060;-60
2022/04/28 13:57:44;;;;;;;7.25;2.10;;;;;;;;;;5040312;28;20032;-60
2022/04/28 14:00:10;;;;;;;3.15;1.95;;;;;;;;;;5051202;28;20037;-60
2022/04/28 14:02:36;;;;;;;3.63;2.35;;;;;;;;;;5040690;28;20100;-62
2022/04/28 14:05:01;;;;;;;5.60;2.88;;;;;;;;;;5045799;28;20510;-61
2022/04/28 14:07:27;;;;;;;3.75;2.17;;;;;;;;;;5047474;28;20069;-60
2022/04/28 14:09:53;;;;;;;4.68;2.13;;;;;;;;;;5038665;28;20479;-60
2022/04/28 14:12:18;;;;;;;5.20;2.40;;;;;;;;;;5050963;28;20363;-60
2022/04/28 14:14:44;;;;;;;6.32;2.08;;;;;;;;;;5041601;28;20016;-62
2022/04/28 14:17:10;;;;;;;4.90;1.73;;;;;;;;;;5044337;28;20099;-61
2022/04/28 14:19:36;;;;;;;3.10;1.90;;;;;;;;;;5048403;28;20031;-62
2022/04/28 14:22:04;;;;;;;4.43;1.70;;;;;;;;;;5037992;28;20052;-61
2022/04/28 14:24:30;;;;;;;3.45;1.60;;;;;;;;;;5040138;28;20108;-62
2022/04/28 14:26:55;;;;;;;5.72;1.67;;;;;;;;;;5038088;28;20037;-62
2022/04/28 14:29:21;;;;;;;4.10;1.33;;;;;;;;;;5024592;28;20030;-62
2022/04/28 14:31:47;;;;;;;2.90;1.40;;;;;;;;;;5008952;28;20032;-61
2022/04/28 14:34:12;;;;;;;5.13;1.92;;;;;;;;;;5026892;28;20025;-61
2022/04/28 14:36:38;;;;;;;3.78;2.38;;;;;;;;;;5024813;28;20056;-61
2022/04/28 14:39:04;;;;;;;4.35;1.88;;;;;;;;;;5026289;28;20136;-61
2022/04/28 14:41:29;;;;;;;3.80;1.70;;;;;;;;;;5025065;28;20037;-61
2022/04/28 14:43:55;;;;;;;3.90;1.80;;;;;;;;;;5025285;28;20022;-61
2022/04/28 14:46:20;;;;;;;6.43;2.28;;;;;;;;;;5027782;28;20474;-60
2022/04/28 14:54:14;;;;;;;4.68;1.60;;;;;;;;;;5028837;28;20083;-62
2022/04/28 14:56:39;;;;;;;16.65;3.13;;;;;;;;;;5028166;28;20025;-62
2022/04/28 14:59:05;;;;;;;2.75;1.60;;;;;;;;;;5028059;28;20087;-62
2022/04/28 15:01:31;;;;;;;3.05;1.80;;;;;;;;;;5026740;28;20117;-60
2022/04/28 15:03:58;;;;;;;3.65;2.03;;;;;;;;;;5028629;28;20029;-62
2022/04/28 15:06:23;;;;;;;4.63;2.40;;;;;;;;;;5031680;28;20025;-63
2022/04/28 15:08:49;;;;;;;3.78;1.92;;;;;;;;;;5027341;28;20033;-61
2022/04/28 15:11:14;;;;;;;9.00;2.03;;;;;;;;;;5029179;28;20075;-61
2022/04/28 15:13:40;;;;;;;3.97;2.10;;;;;;;;;;5027493;28;20026;-61
2022/04/28 15:16:06;;;;;;;4.93;1.98;;;;;;;;;;5030578;28;20386;-61
2022/04/28 15:18:31;;;;;;;3.63;2.00;;;;;;;;;;5030722;28;20024;-63
2022/04/28 15:20:57;;;;;;;3.90;1.67;;;;;;;;;;5026849;28;20148;-62
2022/04/28 15:23:22;;;;;;;8.73;1.95;;;;;;;;;;5029933;28;20471;-62